Time;durP1;ratioP1;P1;durP2;ratioP2;P2;SDS_P1;SDS_P2;PMS_P1;PMS_P2;Temp;Humidity;BMP_temperature;BMP_pressure;BME280_temperature;BME280_humidity;BME280_pressure;Samples;Min_cycle;Max_cycle;Signal;HPM_P1;HPM_P2
2022/07/24 00:02:22;;;;;;;6.43;5.15;;;18.00;99.90;;;;;;5084895;28;20042;-60
2022/07/24 00:04:48;;;;;;;5.18;4.20;;;18.00;99.90;;;;;;5081256;28;20085;-59
2022/07/24 00:07:14;;;;;;;7.10;4.60;;;18.00;99.90;;;;;;5082177;28;20469;-60
2022/07/24 00:09:39;;;;;;;7.00;4.43;;;18.00;99.90;;;;;;5082160;28;20071;-59
2022/07/24 00:12:05;;;;;;;6.60;5.47;;;17.90;99.90;;;;;;5083068;28;20036;-59
2022/07/24 00:14:31;;;;;;;5.60;4.90;;;17.90;99.90;;;;;;5065331;28;20071;-59
2022/07/24 00:16:57;;;;;;;7.15;5.05;;;17.90;99.90;;;;;;5063839;28;20032;-59
2022/07/24 00:19:22;;;;;;;8.75;5.45;;;17.90;99.90;;;;;;5064594;28;20044;-60
2022/07/24 00:21:48;;;;;;;7.22;5.15;;;17.90;99.90;;;;;;5081899;28;20036;-59
2022/07/24 00:24:13;;;;;;;6.93;5.22;;;17.80;99.90;;;;;;5066503;28;20117;-60
2022/07/24 00:26:39;;;;;;;8.02;5.50;;;17.80;99.90;;;;;;5082848;28;20071;-60
2022/07/24 00:29:05;;;;;;;7.05;5.32;;;17.80;99.90;;;;;;5082592;28;20040;-60
2022/07/24 00:31:31;;;;;;;7.28;5.28;;;17.80;99.90;;;;;;5080422;28;20376;-60
2022/07/24 00:33:56;;;;;;;8.38;5.60;;;17.80;99.90;;;;;;5083935;28;20059;-60
2022/07/24 00:36:22;;;;;;;7.28;5.28;;;17.70;99.90;;;;;;5081624;28;20085;-60
2022/07/24 00:38:48;;;;;;;7.13;5.25;;;17.70;99.90;;;;;;5081583;28;20039;-59
2022/07/24 00:41:14;;;;;;;6.75;5.47;;;17.70;99.90;;;;;;5082800;28;20633;-60
2022/07/24 00:44:08;;;;;;;7.25;5.75;;;17.70;99.90;;;;;;5083602;28;20064;-60
2022/07/24 00:46:35;;;;;;;7.85;5.75;;;17.60;99.90;;;;;;5045962;28;20046;-59
2022/07/24 00:49:01;;;;;;;9.50;6.00;;;17.70;99.90;;;;;;5064003;28;20146;-60
2022/07/24 00:51:27;;;;;;;8.43;5.85;;;17.60;99.90;;;;;;5063338;28;20479;-60
2022/07/24 00:53:53;;;;;;;8.57;5.63;;;17.60;99.90;;;;;;5065097;28;20081;-59
2022/07/24 00:56:19;;;;;;;8.00;5.45;;;17.50;99.90;;;;;;5062225;28;20127;-59
2022/07/24 00:58:46;;;;;;;7.55;5.80;;;17.50;99.90;;;;;;5064476;28;20131;-61
2022/07/24 01:01:13;;;;;;;8.13;6.10;;;17.60;99.90;;;;;;5065234;28;20604;-60
2022/07/24 01:03:39;;;;;;;8.13;6.30;;;17.50;99.90;;;;;;5082385;28;20037;-59
2022/07/24 01:06:06;;;;;;;7.25;5.97;;;17.50;99.90;;;;;;5079975;28;20047;-61
2022/07/24 01:08:34;;;;;;;7.15;6.15;;;17.50;99.90;;;;;;5080893;28;20067;-59
2022/07/24 01:11:04;;;;;;;6.78;5.80;;;17.40;99.90;;;;;;5080199;28;20033;-60
2022/07/24 01:13:31;;;;;;;6.57;5.60;;;17.50;99.90;;;;;;5083201;28;20036;-60
2022/07/24 01:15:57;;;;;;;7.75;5.75;;;17.50;99.90;;;;;;5082367;28;20040;-60
2022/07/24 01:18:23;;;;;;;6.75;5.90;;;17.40;99.90;;;;;;5081680;28;20055;-59
2022/07/24 01:20:50;;;;;;;7.57;5.47;;;17.40;99.90;;;;;;5080551;28;20040;-60
2022/07/24 01:23:16;;;;;;;8.00;6.10;;;17.40;99.90;;;;;;5082790;28;21391;-59
2022/07/24 01:25:43;;;;;;;8.65;5.97;;;17.30;99.90;;;;;;5080372;28;20036;-59
2022/07/24 01:28:09;;;;;;;7.13;6.30;;;17.30;99.90;;;;;;5081963;28;20031;-59
2022/07/24 01:30:34;;;;;;;8.57;6.13;;;17.30;99.90;;;;;;5080701;28;20345;-59
2022/07/24 01:33:00;;;;;;;9.68;5.85;;;17.30;99.90;;;;;;5064541;28;20047;-59
2022/07/24 01:35:26;;;;;;;7.90;5.93;;;17.30;99.90;;;;;;5062736;28;20039;-59
2022/07/24 01:37:52;;;;;;;6.75;5.55;;;17.30;99.90;;;;;;5080683;28;20123;-59
2022/07/24 01:40:19;;;;;;;8.07;5.90;;;17.30;99.90;;;;;;5080050;28;20032;-60
2022/07/24 01:42:45;;;;;;;9.00;6.05;;;17.30;99.90;;;;;;5083601;28;20116;-61
2022/07/24 01:45:12;;;;;;;7.85;6.05;;;17.30;99.90;;;;;;5079749;28;20115;-60
2022/07/24 01:47:38;;;;;;;7.50;6.15;;;17.20;99.90;;;;;;5080142;28;20036;-60
2022/07/24 01:50:04;;;;;;;7.32;5.50;;;17.20;99.90;;;;;;5082466;28;20441;-59
2022/07/24 01:52:29;;;;;;;8.00;6.05;;;17.30;99.90;;;;;;5081381;28;20025;-59
2022/07/24 01:54:55;;;;;;;6.63;5.47;;;17.20;99.90;;;;;;5080669;28;20130;-61
2022/07/24 01:57:21;;;;;;;6.95;5.90;;;17.20;99.90;;;;;;5064384;28;20258;-59
2022/07/24 01:59:47;;;;;;;7.28;5.97;;;17.20;99.90;;;;;;5063067;28;20037;-60
2022/07/24 02:02:12;;;;;;;7.68;5.78;;;17.30;99.90;;;;;;5078614;28;20040;-60
2022/07/24 02:04:38;;;;;;;8.40;4.95;;;17.30;99.90;;;;;;5080211;28;20039;-60
2022/07/24 02:07:04;;;;;;;7.63;5.40;;;17.30;99.90;;;;;;5080026;28;20025;-59
2022/07/24 02:09:30;;;;;;;6.50;5.38;;;17.30;99.90;;;;;;5080125;28;20097;-59
2022/07/24 02:11:55;;;;;;;7.68;4.97;;;17.30;99.90;;;;;;5081393;28;20072;-61
2022/07/24 02:14:21;;;;;;;9.02;5.45;;;17.30;99.90;;;;;;5082779;28;20048;-59
2022/07/24 02:16:47;;;;;;;6.45;5.13;;;17.30;99.90;;;;;;5079182;28;20046;-59
2022/07/24 02:19:13;;;;;;;6.32;5.20;;;17.40;99.90;;;;;;5080616;28;20039;-60
2022/07/24 02:21:39;;;;;;;6.65;5.03;;;17.40;99.90;;;;;;5079009;28;20036;-59
2022/07/24 02:24:05;;;;;;;7.40;5.47;;;17.40;99.90;;;;;;5082309;28;20052;-60
2022/07/24 02:26:31;;;;;;;6.60;5.15;;;17.40;99.90;;;;;;5081073;28;20098;-60
2022/07/24 02:28:56;;;;;;;6.32;5.00;;;17.40;99.90;;;;;;5080526;28;20028;-60
2022/07/24 02:31:22;;;;;;;7.95;6.20;;;17.40;99.90;;;;;;5079804;28;20464;-59
2022/07/24 02:33:48;;;;;;;7.05;5.43;;;17.40;99.90;;;;;;5082112;28;20033;-59
2022/07/24 02:36:14;;;;;;;7.22;5.50;;;17.40;99.90;;;;;;5077278;28;20486;-59
2022/07/24 02:38:41;;;;;;;6.68;5.45;;;17.40;99.90;;;;;;5081007;28;20118;-59
2022/07/24 02:41:07;;;;;;;6.30;5.28;;;17.40;99.90;;;;;;5080498;28;20129;-60
2022/07/24 02:43:33;;;;;;;7.50;5.68;;;17.40;99.90;;;;;;5083323;28;20188;-59
2022/07/24 02:45:59;;;;;;;9.32;5.82;;;17.30;99.90;;;;;;5076834;28;20442;-59
2022/07/24 02:48:24;;;;;;;7.75;6.20;;;17.30;99.90;;;;;;5079836;28;20042;-59
2022/07/24 02:50:50;;;;;;;11.38;5.78;;;17.30;99.90;;;;;;5080967;28;20039;-59
2022/07/24 02:53:16;;;;;;;7.80;6.03;;;17.30;99.90;;;;;;5084386;28;20480;-59
2022/07/24 02:55:42;;;;;;;8.95;6.65;;;17.20;99.90;;;;;;5084330;28;20044;-59
2022/07/24 02:58:08;;;;;;;8.13;6.22;;;17.10;99.90;;;;;;5083356;28;20036;-59
2022/07/24 03:00:34;;;;;;;8.40;6.15;;;17.10;99.90;;;;;;5085112;28;20052;-60
2022/07/24 03:03:01;;;;;;;8.27;6.35;;;17.10;99.90;;;;;;5066134;28;20040;-59
2022/07/24 03:05:27;;;;;;;7.45;5.93;;;17.10;99.90;;;;;;5082084;28;20051;-59
2022/07/24 03:07:53;;;;;;;8.85;6.32;;;17.10;99.90;;;;;;5083600;28;20039;-60
2022/07/24 03:10:19;;;;;;;9.85;6.97;;;17.00;99.90;;;;;;5083200;28;20132;-60
2022/07/24 03:12:45;;;;;;;8.52;6.45;;;17.00;99.90;;;;;;5066154;28;20411;-59
2022/07/24 03:15:13;;;;;;;10.32;6.47;;;17.00;99.90;;;;;;5081435;28;20037;-60
2022/07/24 03:17:39;;;;;;;8.77;6.57;;;17.00;99.90;;;;;;5065459;28;20063;-59
2022/07/24 03:20:06;;;;;;;7.28;6.45;;;16.90;99.90;;;;;;5080470;28;20029;-59
2022/07/24 03:22:32;;;;;;;8.18;6.95;;;16.90;99.90;;;;;;5083522;28;20342;-59
2022/07/24 03:24:57;;;;;;;9.93;7.00;;;16.90;99.90;;;;;;5085290;28;20047;-59
2022/07/24 03:27:23;;;;;;;8.13;6.55;;;16.90;99.90;;;;;;5064740;28;20047;-60
2022/07/24 03:29:49;;;;;;;8.23;6.68;;;16.90;99.90;;;;;;5082898;28;20400;-59
2022/07/24 03:32:14;;;;;;;9.60;6.95;;;16.80;99.90;;;;;;5082484;28;20079;-59
2022/07/24 03:34:40;;;;;;;8.40;6.75;;;16.80;99.90;;;;;;5085016;28;20463;-59
2022/07/24 03:37:05;;;;;;;9.25;6.95;;;16.80;99.90;;;;;;5083443;28;20034;-60
2022/07/24 03:39:31;;;;;;;8.43;7.35;;;16.80;99.90;;;;;;5064443;28;20158;-59
2022/07/24 03:41:57;;;;;;;8.70;6.90;;;16.80;99.90;;;;;;5084448;28;20059;-60
2022/07/24 03:44:22;;;;;;;8.77;6.97;;;16.80;99.90;;;;;;5065074;28;20476;-59
2022/07/24 03:46:48;;;;;;;8.00;6.55;;;16.80;99.90;;;;;;5080617;28;20109;-60
2022/07/24 03:49:14;;;;;;;9.15;7.28;;;16.80;99.90;;;;;;5082991;28;20036;-59
2022/07/24 03:51:39;;;;;;;9.65;7.15;;;16.80;99.90;;;;;;5080684;28;20047;-60
2022/07/24 03:54:05;;;;;;;9.93;7.68;;;16.70;99.90;;;;;;5085289;28;20032;-59
2022/07/24 03:56:31;;;;;;;9.13;7.30;;;16.80;99.90;;;;;;5082528;28;20063;-59
2022/07/24 03:58:56;;;;;;;10.57;6.90;;;16.70;99.90;;;;;;5084060;28;20040;-59
2022/07/24 04:01:22;;;;;;;9.70;7.25;;;16.80;99.90;;;;;;5066676;28;20055;-60
2022/07/24 04:03:48;;;;;;;10.25;7.15;;;16.70;99.90;;;;;;5065997;28;20168;-60
2022/07/24 04:06:14;;;;;;;8.48;7.22;;;16.80;99.90;;;;;;5082117;28;20028;-59
2022/07/24 04:08:40;;;;;;;8.93;7.43;;;16.70;99.90;;;;;;5082321;28;20047;-60
2022/07/24 04:11:07;;;;;;;8.73;7.30;;;16.70;99.90;;;;;;5081890;28;20032;-59
2022/07/24 04:13:33;;;;;;;8.50;7.35;;;16.80;99.90;;;;;;5085758;28;20047;-59
2022/07/24 04:15:59;;;;;;;8.07;6.95;;;16.80;99.90;;;;;;5063736;28;20099;-59
2022/07/24 04:18:25;;;;;;;10.13;7.78;;;16.80;99.90;;;;;;5083191;28;20043;-59
2022/07/24 04:20:52;;;;;;;9.73;7.88;;;16.80;99.90;;;;;;5081636;28;20136;-59
2022/07/24 04:23:17;;;;;;;10.07;7.47;;;16.80;99.90;;;;;;5064682;28;20060;-59
2022/07/24 04:25:43;;;;;;;9.90;7.75;;;16.80;99.90;;;;;;5063543;28;20047;-60
2022/07/24 04:28:09;;;;;;;10.10;7.75;;;16.90;99.90;;;;;;5083142;28;20116;-60
2022/07/24 04:30:34;;;;;;;9.10;7.82;;;16.90;99.90;;;;;;5081878;28;20036;-59
2022/07/24 04:33:00;;;;;;;10.05;7.18;;;17.00;99.90;;;;;;5066064;28;20043;-60
2022/07/24 04:35:26;;;;;;;10.02;7.85;;;17.00;99.90;;;;;;5080744;28;20071;-59
2022/07/24 04:37:52;;;;;;;10.88;7.60;;;17.10;99.90;;;;;;5081727;28;20082;-60
2022/07/24 04:40:18;;;;;;;10.15;8.20;;;17.10;99.90;;;;;;5081086;28;20039;-60
2022/07/24 04:42:44;;;;;;;8.88;7.47;;;17.10;99.90;;;;;;5083453;28;20066;-60
2022/07/24 04:45:10;;;;;;;11.57;8.70;;;17.10;99.90;;;;;;5080906;28;20044;-60
2022/07/24 04:47:37;;;;;;;10.85;8.48;;;17.10;99.90;;;;;;5080597;28;20024;-59
2022/07/24 04:50:04;;;;;;;10.65;8.65;;;17.20;99.90;;;;;;5078716;28;20032;-59
2022/07/24 04:52:30;;;;;;;10.00;8.35;;;17.20;99.90;;;;;;5080843;28;20530;-60
2022/07/24 04:54:55;;;;;;;10.88;9.20;;;17.30;99.90;;;;;;5063726;28;20040;-59
2022/07/24 04:57:21;;;;;;;8.95;7.95;;;17.40;99.90;;;;;;5080567;28;20036;-60
2022/07/24 04:59:47;;;;;;;10.00;8.40;;;17.50;99.90;;;;;;5081580;28;20264;-61
2022/07/24 05:02:13;;;;;;;10.27;8.90;;;17.60;99.90;;;;;;5064157;28;20119;-60
2022/07/24 05:04:38;;;;;;;10.65;8.77;;;17.80;99.90;;;;;;5080512;28;20484;-59
2022/07/24 05:07:04;;;;;;;10.93;8.52;;;18.10;99.90;;;;;;5063011;28;20123;-60
2022/07/24 05:09:30;;;;;;;10.07;8.00;;;18.80;99.90;;;;;;5062885;28;20498;-60
2022/07/24 05:11:56;;;;;;;12.88;8.32;;;19.40;99.90;;;;;;5082199;28;20107;-60
2022/07/24 05:14:21;;;;;;;10.88;8.52;;;20.00;99.90;;;;;;5082373;28;20419;-60
2022/07/24 05:16:47;;;;;;;9.50;7.82;;;20.50;99.90;;;;;;5045793;28;20040;-61
2022/07/24 05:19:13;;;;;;;9.90;8.25;;;21.10;99.90;;;;;;5081159;28;20040;-60
2022/07/24 05:21:39;;;;;;;10.15;8.45;;;21.50;99.90;;;;;;5079700;28;20044;-60
2022/07/24 05:24:05;;;;;;;9.93;7.78;;;21.90;99.90;;;;;;5082023;28;20048;-60
2022/07/24 05:26:31;;;;;;;12.35;7.93;;;22.00;99.90;;;;;;5081405;28;20558;-60
2022/07/24 05:28:58;;;;;;;10.02;8.27;;;22.10;99.90;;;;;;5080876;28;20489;-60
2022/07/24 05:31:24;;;;;;;10.77;8.10;;;22.30;99.90;;;;;;5080243;28;20040;-60
2022/07/24 05:33:50;;;;;;;9.52;7.65;;;22.80;99.90;;;;;;5081916;28;20061;-60
2022/07/24 05:36:16;;;;;;;11.02;8.32;;;23.00;99.90;;;;;;5080659;28;20483;-60
2022/07/24 05:38:42;;;;;;;9.48;8.48;;;22.90;99.90;;;;;;5063887;28;20042;-61
2022/07/24 05:41:08;;;;;;;11.57;8.70;;;22.70;99.90;;;;;;5063329;28;20111;-60
2022/07/24 05:43:34;;;;;;;10.40;8.18;;;22.80;99.90;;;;;;5083363;28;20123;-61
2022/07/24 05:45:59;;;;;;;10.68;9.07;;;23.00;99.90;;;;;;5077346;28;20106;-60
2022/07/24 05:48:25;;;;;;;9.75;8.52;;;23.20;99.90;;;;;;5063203;28;20694;-60
2022/07/24 05:50:50;;;;;;;11.38;9.07;;;23.40;99.90;;;;;;5062241;28;20032;-60
2022/07/24 05:53:16;;;;;;;12.23;8.88;;;23.80;99.90;;;;;;5063072;28;20048;-60
2022/07/24 05:55:42;;;;;;;10.50;9.32;;;24.00;99.90;;;;;;5063592;28;20044;-60
2022/07/24 05:58:07;;;;;;;12.10;9.85;;;24.30;99.90;;;;;;5079990;28;20114;-60
2022/07/24 06:00:33;;;;;;;11.05;9.85;;;24.20;99.90;;;;;;5081673;28;20362;-60
2022/07/24 06:02:59;;;;;;;13.38;9.20;;;24.30;99.90;;;;;;5080584;28;20041;-60
2022/07/24 06:05:24;;;;;;;11.90;9.50;;;24.40;99.90;;;;;;5073535;28;20044;-60
2022/07/24 06:07:50;;;;;;;10.82;9.73;;;24.50;99.90;;;;;;5054305;28;20036;-60
2022/07/24 06:10:16;;;;;;;12.75;9.95;;;24.50;99.90;;;;;;5075293;28;20366;-60
2022/07/24 06:12:42;;;;;;;11.25;9.70;;;24.70;99.90;;;;;;5062830;28;20418;-61
2022/07/24 06:15:08;;;;;;;13.00;9.65;;;24.90;99.90;;;;;;5061089;28;20653;-60
2022/07/24 06:17:34;;;;;;;14.32;10.80;;;25.00;99.90;;;;;;5079730;28;20463;-60
2022/07/24 06:20:00;;;;;;;12.00;9.60;;;25.10;99.90;;;;;;5083588;28;20042;-61
2022/07/24 06:22:25;;;;;;;11.50;10.30;;;25.40;99.90;;;;;;5055111;28;20342;-61
2022/07/24 06:24:51;;;;;;;12.38;10.73;;;25.60;99.90;;;;;;5077671;28;20456;-60
2022/07/24 06:27:16;;;;;;;14.20;9.90;;;26.10;99.90;;;;;;5080600;28;20063;-60
2022/07/24 06:29:42;;;;;;;13.00;10.10;;;26.50;99.90;;;;;;5075081;28;20119;-61
2022/07/24 06:32:08;;;;;;;15.27;10.50;;;26.90;99.70;;;;;;5074682;28;20438;-61
2022/07/24 06:34:33;;;;;;;14.32;11.35;;;27.10;99.30;;;;;;5078699;28;20070;-60
2022/07/24 06:36:59;;;;;;;12.18;10.75;;;27.10;99.10;;;;;;5083294;28;20093;-62
2022/07/24 06:39:25;;;;;;;16.45;10.73;;;27.30;99.00;;;;;;5085423;28;20093;-60
2022/07/24 06:41:50;;;;;;;11.95;10.70;;;27.50;98.90;;;;;;5084697;28;20726;-61
2022/07/24 06:44:16;;;;;;;14.30;11.50;;;27.80;98.70;;;;;;5082003;28;20048;-61
2022/07/24 06:46:41;;;;;;;12.30;11.02;;;27.70;98.40;;;;;;5077132;28;20079;-60
2022/07/24 06:49:09;;;;;;;15.10;12.13;;;27.80;98.60;;;;;;5076521;28;20040;-61
2022/07/24 06:51:34;;;;;;;13.93;11.75;;;27.80;98.50;;;;;;5074664;28;20082;-61
2022/07/24 06:54:00;;;;;;;12.75;11.40;;;28.00;98.50;;;;;;5081778;28;20035;-61
2022/07/24 06:56:25;;;;;;;15.52;12.90;;;28.20;98.10;;;;;;5084529;28;20040;-60
2022/07/24 06:58:51;;;;;;;14.07;11.73;;;28.10;97.90;;;;;;5084108;28;20074;-61
2022/07/24 07:01:17;;;;;;;15.27;13.25;;;28.10;97.70;;;;;;5081254;28;20060;-61
2022/07/24 07:03:42;;;;;;;14.90;11.93;;;27.90;97.70;;;;;;5079818;28;20145;-62
2022/07/24 07:06:08;;;;;;;14.85;11.48;;;27.80;97.60;;;;;;5073849;28;20032;-62
2022/07/24 07:08:34;;;;;;;15.25;10.93;;;27.80;97.70;;;;;;5056417;28;20037;-61
2022/07/24 07:11:00;;;;;;;14.63;10.93;;;27.80;97.60;;;;;;5075933;28;20236;-60
2022/07/24 07:13:26;;;;;;;11.30;9.68;;;27.80;97.80;;;;;;5084864;28;20036;-60
2022/07/24 07:15:51;;;;;;;11.65;10.18;;;27.30;98.30;;;;;;5082020;28;20128;-61
2022/07/24 07:18:17;;;;;;;12.82;10.45;;;27.00;98.90;;;;;;5076357;28;20039;-60
2022/07/24 07:20:43;;;;;;;14.45;9.00;;;26.70;99.10;;;;;;5085434;28;20036;-60
2022/07/24 07:23:08;;;;;;;13.93;9.57;;;26.50;99.40;;;;;;5084729;28;20559;-60
2022/07/24 07:25:34;;;;;;;9.65;7.72;;;26.30;99.70;;;;;;5082903;28;20075;-60
2022/07/24 07:28:00;;;;;;;8.48;7.18;;;26.10;99.60;;;;;;5085439;28;20043;-60
2022/07/24 07:30:25;;;;;;;7.68;5.60;;;26.00;99.40;;;;;;5081426;28;20377;-60
2022/07/24 07:32:51;;;;;;;8.02;5.63;;;25.80;99.30;;;;;;5084251;28;20035;-60
2022/07/24 07:35:17;;;;;;;8.43;5.07;;;25.70;99.30;;;;;;5083927;28;20063;-60
2022/07/24 07:37:46;;;;;;;8.93;4.75;;;25.80;99.30;;;;;;5081127;28;20044;-59
2022/07/24 07:40:11;;;;;;;8.68;5.45;;;25.70;99.10;;;;;;5083641;28;20191;-61
2022/07/24 07:42:37;;;;;;;7.10;4.40;;;25.80;99.20;;;;;;5082116;28;20424;-61
2022/07/24 07:45:04;;;;;;;6.15;4.15;;;25.80;99.00;;;;;;5064947;28;20109;-60
2022/07/24 07:47:29;;;;;;;5.32;3.80;;;25.70;98.70;;;;;;5081301;28;20040;-61
2022/07/24 07:49:55;;;;;;;6.15;3.92;;;25.80;98.60;;;;;;5061418;28;20032;-60
2022/07/24 07:52:21;;;;;;;7.40;4.43;;;25.80;98.70;;;;;;5054360;28;20052;-61
2022/07/24 07:54:46;;;;;;;7.00;4.00;;;25.90;98.80;;;;;;5055799;28;20032;-60
2022/07/24 07:57:12;;;;;;;5.55;4.10;;;25.90;98.70;;;;;;5053565;28;20098;-61
2022/07/24 07:59:41;;;;;;;5.90;4.10;;;25.90;98.90;;;;;;5072581;28;20074;-61
2022/07/24 08:02:08;;;;;;;5.57;3.55;;;25.90;98.90;;;;;;5038240;28;20043;-60
2022/07/24 08:04:35;;;;;;;4.90;3.97;;;25.90;99.00;;;;;;5075653;28;20071;-61
2022/07/24 08:07:00;;;;;;;6.88;4.35;;;25.90;99.00;;;;;;5071982;28;20059;-61
2022/07/24 08:09:26;;;;;;;5.38;4.25;;;26.10;99.20;;;;;;5038290;28;20461;-61
2022/07/24 08:11:51;;;;;;;6.28;3.80;;;26.10;98.90;;;;;;5059509;28;20062;-61
2022/07/24 08:14:17;;;;;;;6.05;3.78;;;26.20;99.00;;;;;;5065949;28;20039;-60
2022/07/24 08:16:43;;;;;;;4.65;3.70;;;26.40;98.90;;;;;;5084126;28;20040;-60
2022/07/24 08:19:08;;;;;;;6.10;4.43;;;26.30;99.00;;;;;;5047320;28;20043;-60
2022/07/24 08:21:34;;;;;;;5.97;3.60;;;26.00;98.50;;;;;;5063441;28;20046;-60
2022/07/24 08:24:00;;;;;;;6.68;4.57;;;25.90;99.00;;;;;;5049301;28;20074;-60
2022/07/24 08:26:30;;;;;;;6.65;4.38;;;25.90;99.20;;;;;;5047381;28;20051;-60
2022/07/24 08:28:57;;;;;;;7.72;3.90;;;26.00;99.40;;;;;;5066966;28;20032;-60
2022/07/24 08:31:25;;;;;;;6.40;3.95;;;26.10;99.30;;;;;;5061042;28;20048;-61
2022/07/24 08:33:50;;;;;;;5.78;3.83;;;26.10;99.10;;;;;;5049412;28;20044;-60
2022/07/24 08:36:16;;;;;;;5.43;3.30;;;26.00;99.20;;;;;;5081640;28;20400;-60
2022/07/24 08:38:42;;;;;;;5.45;3.85;;;25.90;99.40;;;;;;5064464;28;20409;-60
2022/07/24 08:41:07;;;;;;;5.78;3.60;;;26.00;99.50;;;;;;5064152;28;20041;-60
2022/07/24 08:43:33;;;;;;;6.38;4.00;;;25.90;99.20;;;;;;5064851;28;20120;-60
2022/07/24 08:46:02;;;;;;;4.97;3.38;;;26.00;99.20;;;;;;5084210;28;20044;-61
2022/07/24 08:48:28;;;;;;;5.20;3.10;;;26.00;99.20;;;;;;5046721;28;20040;-60
2022/07/24 08:50:55;;;;;;;5.03;3.20;;;26.20;99.00;;;;;;5065342;28;20050;-61
2022/07/24 08:53:22;;;;;;;3.88;2.90;;;26.30;98.70;;;;;;5060347;28;20540;-60
2022/07/24 08:55:48;;;;;;;4.25;3.00;;;26.50;98.50;;;;;;5062964;28;20428;-61
2022/07/24 08:58:14;;;;;;;6.03;2.92;;;26.70;98.60;;;;;;5048382;28;20190;-61
2022/07/24 09:00:41;;;;;;;4.50;2.60;;;26.70;98.20;;;;;;5062634;28;20531;-60
2022/07/24 09:03:07;;;;;;;4.25;2.75;;;26.80;98.10;;;;;;5065370;28;20036;-61
2022/07/24 09:05:34;;;;;;;5.07;2.80;;;27.00;98.20;;;;;;5059990;28;20044;-61
2022/07/24 09:08:14;;;;;;;6.53;3.28;;;27.10;97.60;;;;;;5063535;28;20095;-60
2022/07/24 09:10:40;;;;;;;5.95;3.00;;;27.20;97.50;;;;;;5064822;28;20115;-61
2022/07/24 09:13:17;;;;;;;4.43;2.90;;;27.20;97.20;;;;;;5064527;28;20182;-60
2022/07/24 09:15:48;;;;;;;6.13;3.20;;;27.20;97.00;;;;;;5080402;28;20123;-60
2022/07/24 09:18:31;;;;;;;3.70;2.72;;;27.20;97.40;;;;;;5045276;28;20091;-60
2022/07/24 09:21:10;;;;;;;5.45;3.40;;;27.00;97.30;;;;;;5062943;28;20384;-61
2022/07/24 09:23:40;;;;;;;4.15;3.00;;;27.00;97.30;;;;;;5063789;28;20060;-61
2022/07/24 09:26:06;;;;;;;5.22;2.90;;;26.90;97.50;;;;;;5079369;28;20028;-61
2022/07/24 09:28:53;;;;;;;4.63;3.10;;;26.90;97.60;;;;;;5064534;28;20123;-61
2022/07/24 09:31:24;;;;;;;4.35;3.08;;;27.00;97.20;;;;;;5060645;28;20473;-61
2022/07/24 09:33:50;;;;;;;3.60;2.72;;;27.10;97.60;;;;;;5056617;28;20778;-61
2022/07/24 09:36:17;;;;;;;4.72;2.92;;;27.20;97.70;;;;;;5053337;28;20461;-61
2022/07/24 09:38:51;;;;;;;4.90;2.97;;;27.30;97.20;;;;;;5060627;28;20040;-60
2022/07/24 09:41:20;;;;;;;;;;;27.40;97.30;;;;;;5064144;28;20346;-60
2022/07/24 09:44:00;;;;;;;4.80;2.78;;;27.40;97.40;;;;;;5065529;28;19916;-60
2022/07/24 09:46:26;;;;;;;4.78;2.67;;;27.20;96.70;;;;;;5056926;28;20076;-61
2022/07/24 09:48:58;;;;;;;3.67;2.33;;;27.10;96.80;;;;;;5063615;28;20068;-62
2022/07/24 09:51:27;;;;;;;4.82;3.00;;;26.90;96.90;;;;;;5079324;28;20101;-61
2022/07/24 09:53:56;;;;;;;5.15;3.00;;;26.80;97.10;;;;;;5061418;28;20029;-60
2022/07/24 09:56:22;;;;;;;3.72;2.75;;;26.70;97.10;;;;;;5063890;28;20339;-60
2022/07/24 09:58:54;;;;;;;5.72;2.78;;;26.80;97.40;;;;;;5082885;28;20474;-61
2022/07/24 10:01:26;;;;;;;4.65;2.92;;;26.90;97.20;;;;;;5061568;28;20667;-61
2022/07/24 10:03:53;;;;;;;5.15;2.95;;;27.00;97.10;;;;;;5062218;28;20051;-60
2022/07/24 10:06:21;;;;;;;4.93;2.80;;;27.20;97.20;;;;;;5080315;28;20044;-61
2022/07/24 10:08:50;;;;;;;4.03;2.58;;;27.20;97.20;;;;;;5073869;28;20477;-61
2022/07/24 10:11:16;;;;;;;4.25;2.50;;;27.30;97.00;;;;;;5074935;28;20062;-61
2022/07/24 10:13:43;;;;;;;4.40;2.38;;;27.30;96.90;;;;;;5057224;28;20098;-60
2022/07/24 10:16:14;;;;;;;5.03;2.65;;;27.50;96.80;;;;;;5074494;28;20090;-62
2022/07/24 10:18:43;;;;;;;4.45;2.33;;;27.40;96.50;;;;;;5075508;28;20119;-61
2022/07/24 10:21:11;;;;;;;4.63;2.70;;;27.30;96.70;;;;;;5074845;28;20047;-62
2022/07/24 10:24:03;;;;;;;4.75;2.63;;;27.20;97.10;;;;;;5058896;28;20056;-62
2022/07/24 10:26:41;;;;;;;3.92;2.50;;;27.40;97.00;;;;;;5071463;28;20055;-62
2022/07/24 10:29:10;;;;;;;3.72;2.42;;;27.70;96.70;;;;;;5075855;28;20025;-62
2022/07/24 10:31:41;;;;;;;5.30;2.60;;;27.60;96.80;;;;;;5053541;28;20686;-62
2022/07/24 10:34:24;;;;;;;3.70;2.47;;;27.60;96.80;;;;;;5055324;28;20043;-62
2022/07/24 10:37:01;;;;;;;4.90;2.45;;;27.60;97.20;;;;;;5053018;28;20051;-62
2022/07/24 10:39:47;;;;;;;4.53;2.60;;;27.70;96.70;;;;;;5071137;28;20049;-62
2022/07/24 10:42:13;;;;;;;4.25;2.50;;;27.70;96.80;;;;;;5053492;28;20447;-62
2022/07/24 10:44:39;;;;;;;4.40;2.80;;;27.70;96.60;;;;;;5055723;28;20529;-62
2022/07/24 10:47:08;;;;;;;4.03;2.80;;;27.60;96.40;;;;;;5053086;28;20157;-63
2022/07/24 10:49:33;;;;;;;3.45;2.63;;;27.50;96.50;;;;;;5071237;28;20047;-62
2022/07/24 10:52:00;;;;;;;2.90;2.40;;;27.50;96.20;;;;;;5080682;28;20040;-62
2022/07/24 10:54:25;;;;;;;3.63;2.50;;;27.50;96.40;;;;;;5080436;28;20475;-62
2022/07/24 10:56:51;;;;;;;4.32;3.03;;;27.50;96.40;;;;;;5063591;28;20044;-61
2022/07/24 10:59:33;;;;;;;6.22;2.60;;;27.50;96.50;;;;;;5061612;28;20051;-61
2022/07/24 11:02:27;;;;;;;5.28;2.97;;;27.60;96.10;;;;;;5062033;28;20043;-62
2022/07/24 11:05:30;;;;;;;5.28;2.72;;;27.40;95.40;;;;;;5081461;28;20037;-61
2022/07/24 11:08:20;;;;;;;3.90;2.65;;;27.30;96.10;;;;;;5062101;28;20059;-62
2022/07/24 11:10:50;;;;;;;3.83;2.80;;;27.40;96.50;;;;;;5061260;28;20116;-62
2022/07/24 11:13:34;;;;;;;4.15;2.78;;;27.60;96.40;;;;;;5067350;28;20488;-62
2022/07/24 11:16:14;;;;;;;3.88;2.58;;;27.70;96.10;;;;;;5085100;28;20097;-64
2022/07/24 11:18:44;;;;;;;4.43;2.50;;;27.80;96.30;;;;;;5066402;28;20350;-64
2022/07/24 11:21:10;;;;;;;4.13;2.83;;;28.00;95.90;;;;;;5066942;28;20377;-62
2022/07/24 11:23:36;;;;;;;3.72;2.88;;;28.00;95.90;;;;;;5066303;28;20492;-62
2022/07/24 11:26:40;;;;;;;4.60;2.63;;;28.10;95.90;;;;;;5063904;28;20050;-62
2022/07/24 11:29:13;;;;;;;5.85;2.92;;;28.10;95.40;;;;;;5049690;28;20354;-63
2022/07/24 11:31:38;;;;;;;4.07;2.70;;;28.00;95.80;;;;;;5046357;28;20040;-62
2022/07/24 11:34:04;;;;;;;6.28;3.42;;;28.00;95.90;;;;;;5067042;28;20032;-62
2022/07/24 11:36:31;;;;;;;7.60;3.22;;;28.00;95.80;;;;;;5083942;28;20040;-62
2022/07/24 11:39:00;;;;;;;7.13;3.00;;;28.10;95.90;;;;;;5064944;28;20513;-62
2022/07/24 11:41:25;;;;;;;4.95;2.80;;;28.20;95.80;;;;;;5066844;28;20035;-62
2022/07/24 11:43:52;;;;;;;4.80;2.78;;;28.20;95.50;;;;;;5069164;28;20055;-62
2022/07/24 11:46:41;;;;;;;4.57;2.83;;;28.20;95.50;;;;;;5061689;28;20040;-62
2022/07/24 11:49:09;;;;;;;3.90;2.50;;;28.30;94.80;;;;;;5065302;28;20040;-62
2022/07/24 11:51:50;;;;;;;3.47;2.65;;;28.50;95.40;;;;;;5064640;28;20044;-63
2022/07/24 11:54:22;;;;;;;4.70;2.85;;;28.60;95.40;;;;;;5065897;28;20044;-63
2022/07/24 11:56:48;;;;;;;5.27;3.03;;;28.60;95.00;;;;;;5063319;28;20050;-62
2022/07/24 11:59:32;;;;;;;4.65;2.85;;;28.80;94.80;;;;;;5066484;28;20095;-62
2022/07/24 12:02:07;;;;;;;3.88;2.88;;;28.90;94.90;;;;;;5067139;28;20081;-62
2022/07/24 12:04:33;;;;;;;3.40;2.85;;;28.90;94.80;;;;;;5048791;28;20123;-62
2022/07/24 12:07:00;;;;;;;4.18;2.83;;;28.90;94.70;;;;;;5047973;28;20068;-62
2022/07/24 12:09:26;;;;;;;4.47;2.78;;;28.90;94.60;;;;;;5064418;28;20040;-64
2022/07/24 12:11:52;;;;;;;3.50;2.63;;;29.00;94.60;;;;;;5065077;28;20036;-62
2022/07/24 12:14:20;;;;;;;3.97;3.00;;;28.80;94.20;;;;;;5067945;28;20043;-63
2022/07/24 12:16:54;;;;;;;4.25;2.92;;;28.70;94.80;;;;;;5064004;28;20409;-63
2022/07/24 12:19:24;;;;;;;3.85;2.78;;;28.70;94.80;;;;;;5065379;28;20441;-62
2022/07/24 12:21:54;;;;;;;4.65;2.70;;;28.70;94.90;;;;;;5064360;28;20080;-62
2022/07/24 12:24:23;;;;;;;3.45;2.88;;;28.80;94.70;;;;;;5064877;28;20420;-63
2022/07/24 12:26:55;;;;;;;4.45;2.65;;;28.80;94.60;;;;;;5064561;28;20051;-62
2022/07/24 12:29:22;;;;;;;4.35;2.63;;;28.90;94.70;;;;;;5066471;28;20072;-62
2022/07/24 12:31:49;;;;;;;3.97;2.97;;;29.10;94.20;;;;;;5062984;28;20032;-61
2022/07/24 12:34:15;;;;;;;4.82;3.03;;;29.10;94.10;;;;;;5062341;28;20036;-62
2022/07/24 12:36:42;;;;;;;4.00;2.50;;;29.10;94.10;;;;;;5047223;28;20032;-62
2022/07/24 12:39:08;;;;;;;3.65;2.80;;;29.10;94.00;;;;;;5057153;28;20102;-63
2022/07/24 12:41:43;;;;;;;4.15;2.70;;;29.10;94.00;;;;;;5056578;28;20045;-62
2022/07/24 12:44:09;;;;;;;5.70;2.58;;;29.10;93.90;;;;;;5060705;28;20086;-63
2022/07/24 12:46:42;;;;;;;5.22;3.25;;;29.10;94.00;;;;;;5063635;28;20043;-62